Time;durP1;ratioP1;P1;durP2;ratioP2;P2;SDS_P1;SDS_P2;PMS_P1;PMS_P2;Temp;Humidity;BMP_temperature;BMP_pressure;BME280_temperature;BME280_humidity;BME280_pressure;Samples;Min_cycle;Max_cycle;Signal;HPM_P1;HPM_P2
2022/01/05 00:00:16;;;;;;;41.63;25.07;;;;;;;6.23;80.53;99017.19;5113243;28;20194;-68
2022/01/05 00:02:43;;;;;;;39.57;24.73;;;;;;;6.26;80.20;99008.94;5113668;28;20186;-68
2022/01/05 00:05:10;;;;;;;34.70;23.47;;;;;;;6.24;79.91;99009.13;5112814;28;20550;-68
2022/01/05 00:07:37;;;;;;;35.67;23.80;;;;;;;6.20;79.69;99012.31;5113742;28;20190;-68
2022/01/05 00:10:06;;;;;;;32.37;22.53;;;;;;;6.07;80.47;99018.19;5113115;28;20190;-68
2022/01/05 00:12:33;;;;;;;36.67;23.20;;;;;;;6.06;80.89;99015.72;5113046;28;20194;-68
2022/01/05 00:15:00;;;;;;;35.70;22.97;;;;;;;6.05;80.86;99020.19;5112807;28;20192;-68
2022/01/05 00:17:27;;;;;;;40.97;23.77;;;;;;;5.97;80.59;99016.81;5112695;28;20576;-68
2022/01/05 00:19:54;;;;;;;36.20;22.83;;;;;;;5.83;81.27;99025.50;5112633;28;20190;-69
2022/01/05 00:22:20;;;;;;;33.13;23.67;;;;;;;5.71;81.37;99027.69;5112542;28;20702;-69
2022/01/05 00:24:47;;;;;;;36.77;23.43;;;;;;;5.62;82.15;99023.47;5112951;28;20194;-68
2022/01/05 00:27:16;;;;;;;37.90;23.30;;;;;;;5.69;82.38;99025.22;5112424;28;20337;-68
2022/01/05 00:29:42;;;;;;;32.90;22.47;;;;;;;5.79;81.80;99015.28;5112589;28;20194;-68
2022/01/05 00:32:09;;;;;;;34.30;22.77;;;;;;;5.89;81.43;99019.50;5112878;28;20196;-68
2022/01/05 00:34:36;;;;;;;33.33;22.53;;;;;;;5.88;80.75;99017.88;5112951;28;20190;-68
2022/01/05 00:37:04;;;;;;;39.57;23.77;;;;;;;5.93;81.01;99015.53;5112513;28;20661;-68
2022/01/05 00:39:31;;;;;;;33.90;23.07;;;;;;;5.94;80.69;99020.63;5112375;28;20195;-68
2022/01/05 00:41:57;;;;;;;34.23;23.53;;;;;;;5.97;80.62;99022.91;5112491;28;20232;-68
2022/01/05 00:44:26;;;;;;;37.57;22.70;;;;;;;6.00;80.89;99017.25;5112813;28;20251;-68
2022/01/05 00:46:52;;;;;;;35.67;23.57;;;;;;;6.02;80.61;99020.53;5113081;28;20186;-68
2022/01/05 00:49:19;;;;;;;32.73;22.87;;;;;;;6.05;80.75;99028.09;5112382;28;20247;-68
2022/01/05 00:51:46;;;;;;;33.13;23.00;;;;;;;6.02;80.53;99020.53;5112383;28;20220;-68
2022/01/05 00:54:12;;;;;;;35.33;24.13;;;;;;;5.98;81.40;99023.69;5112354;28;20722;-68
2022/01/05 00:56:39;;;;;;;33.97;22.57;;;;;;;6.00;80.53;99019.09;5113513;28;20187;-68
2022/01/05 00:59:06;;;;;;;35.93;23.00;;;;;;;5.94;80.58;99017.16;5112635;28;20252;-68
2022/01/05 01:01:34;;;;;;;35.47;22.60;;;;;;;5.84;81.45;99013.97;5112149;28;20266;-68
2022/01/05 01:04:01;;;;;;;33.97;22.23;;;;;;;5.86;81.99;99014.59;5112266;28;20661;-68
2022/01/05 01:06:27;;;;;;;35.20;22.80;;;;;;;5.83;81.14;99014.97;5113400;28;20194;-68
2022/01/05 01:08:54;;;;;;;32.00;22.93;;;;;;;5.68;81.80;99022.78;5113360;28;20186;-68
2022/01/05 01:11:21;;;;;;;36.20;22.80;;;;;;;5.68;82.94;99013.06;5112241;28;20216;-68
2022/01/05 01:13:47;;;;;;;33.83;22.30;;;;;;;5.70;82.51;99011.06;5112146;28;20627;-68
2022/01/05 01:16:14;;;;;;;39.53;22.47;;;;;;;5.74;82.70;99012.34;5112521;28;20620;-68
2022/01/05 01:18:42;;;;;;;37.90;24.67;;;;;;;5.73;81.90;99010.69;5112510;28;20223;-68
2022/01/05 01:21:10;;;;;;;42.47;25.77;;;;;;;5.60;82.01;98994.66;5112053;28;20717;-68
2022/01/05 01:23:37;;;;;;;47.97;34.10;;;;;;;5.55;82.15;99006.72;5112081;28;20195;-68
2022/01/05 01:26:04;;;;;;;39.33;28.10;;;;;;;5.55;82.73;98991.75;5112116;28;20282;-68
2022/01/05 01:28:30;;;;;;;38.47;28.97;;;;;;;5.46;83.22;98987.56;5112348;28;20192;-68
2022/01/05 01:30:57;;;;;;;41.30;27.87;;;;;;;5.52;83.14;98981.56;5112373;28;20195;-68
2022/01/05 01:33:24;;;;;;;38.57;23.53;;;;;;;5.55;82.16;98970.69;5111964;28;20192;-68
2022/01/05 01:35:52;;;;;;;35.77;24.13;;;;;;;5.60;82.79;98973.59;5112650;28;20191;-68
2022/01/05 01:38:18;;;;;;;31.67;23.10;;;;;;;5.59;82.05;98982.50;5111873;28;20662;-68
2022/01/05 01:40:45;;;;;;;36.13;21.97;;;;;;;5.61;82.54;98988.41;5114812;28;20295;-68
2022/01/05 01:43:12;;;;;;;37.40;23.43;;;;;;;5.64;82.35;98985.41;5116985;28;20247;-68
2022/01/05 01:45:39;;;;;;;33.70;22.33;;;;;;;5.72;81.93;98984.56;5116360;28;20599;-68
2022/01/05 01:48:06;;;;;;;37.83;24.00;;;;;;;5.73;81.22;98994.09;5116619;28;20253;-68
2022/01/05 01:50:32;;;;;;;37.83;23.90;;;;;;;5.71;81.08;98986.34;5115782;28;20729;-68
2022/01/05 01:53:00;;;;;;;37.17;24.63;;;;;;;5.62;81.49;98982.16;5116241;28;20199;-68
2022/01/05 01:55:28;;;;;;;37.87;24.57;;;;;;;5.53;82.38;98983.22;5115663;28;20192;-68
2022/01/05 01:57:54;;;;;;;36.30;24.20;;;;;;;5.50;82.00;98967.78;5115582;28;20239;-68
2022/01/05 02:00:22;;;;;;;30.47;22.43;;;;;;;5.43;82.66;98977.38;5115463;28;20618;-68
2022/01/05 02:02:48;;;;;;;38.13;23.50;;;;;;;5.44;82.81;98957.91;5115428;28;20249;-68
2022/01/05 02:05:15;;;;;;;31.20;21.93;;;;;;;5.51;82.09;98964.13;5116031;28;20580;-68
2022/01/05 02:07:42;;;;;;;35.87;22.50;;;;;;;5.51;82.55;98963.31;5115698;28;20190;-68
2022/01/05 02:10:11;;;;;;;33.00;22.20;;;;;;;5.51;82.11;98958.88;5115653;28;20190;-68
2022/01/05 02:12:38;;;;;;;34.67;22.03;;;;;;;5.47;82.72;98960.22;5115576;28;20194;-68
2022/01/05 02:15:06;;;;;;;32.10;21.67;;;;;;;5.45;82.86;98956.13;5115224;28;20237;-68
2022/01/05 02:17:45;;;;;;;32.37;22.00;;;;;;;5.49;82.44;98960.88;5115155;28;20191;-68
2022/01/05 02:20:17;;;;;;;30.90;21.37;;;;;;;5.51;82.76;98958.88;5116312;28;20221;-68
2022/01/05 02:22:45;;;;;;;32.07;21.27;;;;;;;5.49;81.96;98955.59;5115635;28;20210;-68
2022/01/05 02:25:12;;;;;;;34.53;21.60;;;;;;;5.46;81.94;98960.38;5115351;28;20621;-68
2022/01/05 02:27:40;;;;;;;30.33;21.43;;;;;;;5.45;82.22;98964.84;5115281;28;20240;-68
2022/01/05 02:30:08;;;;;;;32.03;20.07;;;;;;;5.46;82.17;98963.84;5114978;28;20202;-68
2022/01/05 02:32:35;;;;;;;31.33;20.43;;;;;;;5.37;82.54;98966.72;5114877;27;20195;-68
2022/01/05 02:35:02;;;;;;;30.40;19.37;;;;;;;5.30;82.18;98969.22;5115992;28;20194;-68
2022/01/05 02:37:29;;;;;;;29.40;19.90;;;;;;;5.36;82.86;98965.88;5114800;28;20738;-68
2022/01/05 02:39:57;;;;;;;27.37;19.47;;;;;;;5.44;81.66;98963.19;5114709;28;20317;-68
2022/01/05 02:42:27;;;;;;;29.73;18.87;;;;;;;5.50;81.59;98973.03;5114583;28;20218;-68
2022/01/05 02:44:55;;;;;;;28.87;18.63;;;;;;;5.55;81.13;98978.59;5114940;28;20194;-68
2022/01/05 02:47:22;;;;;;;25.33;18.53;;;;;;;5.57;80.70;98967.88;5115245;28;20252;-68
2022/01/05 02:49:48;;;;;;;29.53;19.07;;;;;;;5.58;80.83;98972.97;5114500;27;20252;-67
2022/01/05 02:52:15;;;;;;;26.17;17.67;;;;;;;5.53;81.44;98967.44;5114205;28;20252;-68
2022/01/05 02:54:42;;;;;;;29.27;18.83;;;;;;;5.58;81.32;98972.13;5115069;28;20194;-68
2022/01/05 02:57:10;;;;;;;24.53;17.67;;;;;;;5.59;80.95;98966.69;5114795;28;20197;-68
2022/01/05 02:59:37;;;;;;;31.13;17.90;;;;;;;5.59;81.05;98957.97;5114733;28;20249;-68
2022/01/05 03:02:04;;;;;;;32.27;19.60;;;;;;;5.59;81.07;98958.78;5114241;27;20219;-68
2022/01/05 03:04:31;;;;;;;25.80;18.07;;;;;;;5.58;80.80;98959.81;5114279;28;20190;-67
2022/01/05 03:06:58;;;;;;;24.73;17.97;;;;;;;5.58;81.18;98956.34;5114555;28;20195;-67
2022/01/05 03:09:24;;;;;;;28.63;16.77;;;;;;;5.48;80.72;98953.94;5114488;28;20214;-68
2022/01/05 03:11:51;;;;;;;24.27;16.73;;;;;;;5.39;81.23;98955.00;5114126;27;20669;-68
2022/01/05 03:14:19;;;;;;;21.60;16.53;;;;;;;5.32;81.86;98959.31;5114693;28;20186;-68
2022/01/05 03:16:46;;;;;;;26.33;17.60;;;;;;;5.21;82.17;98956.28;5114087;28;20686;-68
2022/01/05 03:19:13;;;;;;;26.33;16.73;;;;;;;5.17;82.50;98949.75;5114006;27;20191;-68
2022/01/05 03:21:40;;;;;;;30.97;17.93;;;;;;;5.15;82.41;98944.66;5113729;28;20219;-68
2022/01/05 03:24:07;;;;;;;28.93;18.23;;;;;;;5.06;83.25;98937.81;5114218;28;20195;-68
2022/01/05 03:26:34;;;;;;;29.73;19.37;;;;;;;4.96;82.55;98931.13;5114178;28;20190;-68
2022/01/05 03:29:00;;;;;;;30.13;21.40;;;;;;;4.74;82.95;98932.72;5114106;28;20187;-68
2022/01/05 03:31:28;;;;;;;29.13;20.57;;;;;;;4.79;83.88;98935.66;5114065;28;20191;-68
2022/01/05 03:33:55;;;;;;;33.30;22.60;;;;;;;4.83;83.35;98931.69;5113702;28;20194;-68
2022/01/05 03:36:22;;;;;;;34.27;23.60;;;;;;;4.81;83.63;98925.81;5114249;28;20263;-68
2022/01/05 03:38:48;;;;;;;34.00;23.30;;;;;;;4.87;84.08;98934.81;5113869;28;20259;-68
2022/01/05 03:41:15;;;;;;;42.73;24.13;;;;;;;4.85;83.57;98929.72;5114053;27;20276;-68
2022/01/05 03:43:42;;;;;;;37.30;23.93;;;;;;;4.87;83.16;98938.25;5114564;28;20218;-68
2022/01/05 03:46:08;;;;;;;39.73;23.33;;;;;;;4.92;83.57;98935.94;5113794;28;20243;-68
2022/01/05 03:48:37;;;;;;;41.10;25.30;;;;;;;4.84;82.30;98928.09;5114015;28;20190;-68
2022/01/05 03:51:03;;;;;;;33.10;22.43;;;;;;;4.83;83.53;98921.16;5113718;28;20251;-68
2022/01/05 03:53:30;;;;;;;31.93;21.53;;;;;;;4.90;83.61;98929.22;5113544;28;20598;-68
2022/01/05 03:55:57;;;;;;;29.80;18.87;;;;;;;4.91;83.01;98918.50;5113599;28;20195;-68
2022/01/05 03:58:24;;;;;;;28.07;18.97;;;;;;;4.91;82.35;98918.50;5113530;28;20190;-68
2022/01/05 04:00:52;;;;;;;37.13;22.47;;;;;;;4.94;82.40;98912.88;5113161;28;20662;-68
2022/01/05 04:03:20;;;;;;;24.60;18.47;;;;;;;4.99;82.98;98910.53;5112277;28;20236;-69
2022/01/05 04:05:48;;;;;;;26.37;19.10;;;;;;;5.00;82.65;98921.91;5113359;27;20191;-68
2022/01/05 04:08:15;;;;;;;26.53;16.77;;;;;;;5.01;82.06;98919.09;5112970;28;20194;-68
2022/01/05 04:10:41;;;;;;;21.63;15.23;;;;;;;5.02;82.63;98931.25;5113283;28;20244;-68
2022/01/05 04:13:08;;;;;;;16.57;12.27;;;;;;;5.05;82.85;98935.34;5112927;28;20256;-68
2022/01/05 04:15:35;;;;;;;15.13;11.53;;;;;;;4.97;82.78;98928.34;5112840;28;20240;-68
2022/01/05 04:18:02;;;;;;;15.57;11.20;;;;;;;4.78;83.18;98934.03;5113800;28;20186;-68
2022/01/05 04:20:28;;;;;;;19.80;12.37;;;;;;;4.78;84.37;98923.50;5113960;28;20189;-68
2022/01/05 04:22:56;;;;;;;14.23;11.90;;;;;;;4.70;83.45;98931.44;5112981;28;20218;-68
2022/01/05 04:25:24;;;;;;;15.90;11.53;;;;;;;4.60;83.85;98933.47;5112756;28;20195;-68
2022/01/05 04:27:50;;;;;;;15.67;10.93;;;;;;;4.54;84.27;98925.47;5112622;28;20295;-68
2022/01/05 04:30:17;;;;;;;16.97;12.60;;;;;;;4.53;84.23;98919.38;5112951;28;20187;-68
2022/01/05 04:32:44;;;;;;;15.40;12.43;;;;;;;4.51;84.74;98920.53;5112835;28;20247;-68
2022/01/05 04:35:13;;;;;;;13.97;12.37;;;;;;;4.33;85.63;98918.16;5112551;28;20194;-68
2022/01/05 04:37:41;;;;;;;17.73;13.90;;;;;;;4.24;86.28;98929.69;5113352;28;20281;-68
2022/01/05 04:40:11;;;;;;;22.43;14.80;;;;;;;4.20;86.37;98928.38;5112544;28;20217;-68
2022/01/05 04:42:37;;;;;;;20.33;14.77;;;;;;;4.19;86.19;98926.75;5113313;28;20218;-68
2022/01/05 04:45:05;;;;;;;19.83;14.90;;;;;;;4.24;86.24;98928.84;5112785;28;20191;-68
2022/01/05 04:47:32;;;;;;;21.27;14.60;;;;;;;4.27;86.96;98934.59;5112421;28;20236;-67
2022/01/05 04:49:58;;;;;;;19.70;15.77;;;;;;;4.23;86.18;98943.81;5112442;28;20718;-69
2022/01/05 04:52:25;;;;;;;21.07;15.73;;;;;;;4.34;85.69;98946.06;5113546;28;20428;-68
2022/01/05 04:54:52;;;;;;;27.03;18.03;;;;;;;4.35;84.57;98936.38;5112381;28;20190;-68
2022/01/05 04:57:20;;;;;;;28.10;17.80;;;;;;;4.38;84.50;98942.09;5112315;28;20616;-68
2022/01/05 04:59:46;;;;;;;26.17;17.97;;;;;;;4.36;85.38;98951.97;5112637;28;20194;-68
2022/01/05 05:02:14;;;;;;;28.57;18.37;;;;;;;4.27;86.20;98955.63;5112214;28;20222;-68
2022/01/05 05:04:41;;;;;;;25.23;18.80;;;;;;;4.31;85.73;98962.19;5112736;28;20226;-67
2022/01/05 05:07:08;;;;;;;33.73;21.20;;;;;;;4.27;85.95;98960.91;5112718;28;20251;-68
2022/01/05 05:09:34;;;;;;;35.33;21.80;;;;;;;4.19;85.49;98958.28;5112673;28;20190;-67
2022/01/05 05:12:01;;;;;;;32.77;22.80;;;;;;;4.18;86.40;98955.81;5112064;28;20229;-67
2022/01/05 05:14:29;;;;;;;43.13;24.10;;;;;;;4.24;86.06;98955.97;5114503;28;20448;-68
2022/01/05 05:16:56;;;;;;;30.37;22.93;;;;;;;4.19;85.30;98958.28;5117586;28;20186;-63
2022/01/05 05:19:23;;;;;;;32.00;21.90;;;;;;;4.09;85.00;98955.00;5116823;28;20190;-63
2022/01/05 05:21:49;;;;;;;42.33;24.47;;;;;;;3.99;85.05;98951.75;5116274;28;20247;-63
2022/01/05 05:24:16;;;;;;;46.17;21.53;;;;;;;3.98;86.17;98949.31;5116484;28;20279;-63
2022/01/05 05:26:43;;;;;;;29.40;19.77;;;;;;;3.88;86.09;98941.59;5116146;28;20733;-63
2022/01/05 05:29:10;;;;;;;25.53;18.77;;;;;;;3.79;86.16;98953.13;5116722;28;20440;-63
2022/01/05 05:31:38;;;;;;;35.40;20.40;;;;;;;3.72;87.35;98949.50;5116670;28;20194;-63
2022/01/05 05:34:05;;;;;;;30.33;19.43;;;;;;;3.69;88.77;98955.13;5116329;28;20271;-63
2022/01/05 05:36:31;;;;;;;32.83;20.40;;;;;;;3.69;88.71;98957.75;5113618;28;20439;-63
2022/01/05 05:38:58;;;;;;;39.90;25.23;;;;;;;3.74;88.48;98954.59;5101855;28;20445;-62
2022/01/05 05:41:25;;;;;;;46.83;24.10;;;;;;;3.77;87.39;98962.16;5095915;28;20476;-62
2022/01/05 05:43:51;;;;;;;44.80;27.47;;;;;;;3.82;87.33;98958.03;5095379;28;20256;-63
2022/01/05 05:46:19;;;;;;;40.30;24.30;;;;;;;4.09;96.43;98934.00;5095692;28;20476;-62
2022/01/05 05:48:47;;;;;;;37.23;23.07;;;;;;;4.40;89.95;98971.69;5095708;28;20315;-63
2022/01/05 05:51:13;;;;;;;41.17;23.17;;;;;;;4.36;85.19;98978.28;5095582;28;20187;-63
2022/01/05 05:53:40;;;;;;;40.33;22.47;;;;;;;4.35;86.11;98979.28;5095190;28;20667;-62
2022/01/05 05:56:07;;;;;;;34.90;21.87;;;;;;;4.41;85.73;98973.31;5095889;28;20195;-62
2022/01/05 05:58:33;;;;;;;30.53;18.67;;;;;;;4.48;85.01;98982.19;5095656;28;20187;-62
2022/01/05 06:01:00;;;;;;;28.73;17.03;;;;;;;4.46;85.92;98989.41;5094947;28;20244;-62
2022/01/05 06:03:27;;;;;;;38.17;20.83;;;;;;;4.55;86.01;98996.28;5095195;28;20215;-62
2022/01/05 06:05:55;;;;;;;34.23;20.17;;;;;;;4.61;84.36;98992.97;5094993;28;20191;-62
2022/01/05 06:08:21;;;;;;;34.23;20.20;;;;;;;4.60;84.66;98991.34;5094696;28;20195;-63
2022/01/05 06:10:48;;;;;;;30.10;18.07;;;;;;;4.54;85.50;98997.25;5113424;28;20186;-62
2022/01/05 06:13:15;;;;;;;34.93;20.40;;;;;;;4.42;85.23;99000.44;5116024;28;20190;-62
2022/01/05 06:15:41;;;;;;;35.23;19.20;;;;;;;4.50;86.46;99003.03;5115513;28;20194;-62
2022/01/05 06:18:08;;;;;;;33.03;18.57;;;;;;;4.61;86.28;99008.75;5115009;28;20186;-63
2022/01/05 06:20:35;;;;;;;33.00;19.23;;;;;;;4.49;85.33;99012.72;5115627;28;20190;-62
2022/01/05 06:23:03;;;;;;;44.17;21.50;;;;;;;4.59;86.21;99013.38;5115273;28;20218;-62
2022/01/05 06:25:30;;;;;;;38.70;22.40;;;;;;;4.68;85.13;99011.50;5114808;28;20186;-63
2022/01/05 06:27:57;;;;;;;44.87;24.23;;;;;;;4.74;85.75;99011.66;5115171;28;20251;-62
2022/01/05 06:30:23;;;;;;;61.20;28.17;;;;;;;4.83;84.74;99010.63;5114814;28;20318;-62
2022/01/05 06:32:50;;;;;;;47.50;27.23;;;;;;;4.90;85.08;99016.84;5106339;27;20191;-63
2022/01/05 06:35:23;;;;;;;55.67;26.43;;;;;;;5.32;88.76;99017.25;5109305;28;20571;-63
2022/01/05 06:37:50;;;;;;;33.93;21.53;;;;;;;5.71;83.02;99033.78;5096468;28;20184;-66
2022/01/05 06:40:18;;;;;;;27.83;21.57;;;;;;;5.70;81.79;99042.69;5097663;28;20276;-64
2022/01/05 06:42:44;;;;;;;36.90;26.87;;;;;;;5.64;81.34;99040.75;5114737;28;20214;-62
2022/01/05 06:45:11;;;;;;;35.87;24.33;;;;;;;5.76;84.11;99035.91;5114592;28;20240;-61
2022/01/05 06:47:38;;;;;;;37.67;22.43;;;;;;;5.81;81.49;99049.41;5101328;28;20260;-62
2022/01/05 06:50:06;;;;;;;34.50;21.30;;;;;;;5.70;81.56;99034.78;5108139;28;20191;-62
2022/01/05 06:52:33;;;;;;;40.00;22.87;;;;;;;5.94;80.57;99032.97;5113116;28;20194;-62
2022/01/05 06:55:02;;;;;;;36.07;21.87;;;;;;;6.00;79.68;99035.72;5111486;28;20239;-63
2022/01/05 06:57:30;;;;;;;36.97;24.83;;;;;;;6.12;79.92;99036.13;5111882;28;20670;-63
2022/01/05 06:59:57;;;;;;;35.13;24.33;;;;;;;6.44;78.23;99044.53;5111078;28;20186;-63
2022/01/05 07:02:24;;;;;;;50.47;24.00;;;;;;;6.46;77.90;99049.63;5111614;28;20222;-62
2022/01/05 07:04:51;;;;;;;41.07;20.90;;;;;;;6.46;78.96;99049.63;5112947;28;20568;-63
2022/01/05 07:07:17;;;;;;;33.73;19.83;;;;;;;6.75;79.43;99055.72;5113356;28;20186;-62
2022/01/05 07:09:44;;;;;;;31.47;18.80;;;;;;;6.85;77.61;99060.72;5113285;28;20628;-62
2022/01/05 07:12:11;;;;;;;27.83;16.70;;;;;;;7.03;78.00;99059.34;5114047;28;20661;-63
2022/01/05 07:14:40;;;;;;;24.00;15.57;;;;;;;7.39;76.03;99064.66;5109138;28;20194;-63
2022/01/05 07:17:07;;;;;;;29.77;17.47;;;;;;;7.39;75.06;99054.09;5106762;28;20652;-63
2022/01/05 07:19:33;;;;;;;25.20;16.20;;;;;;;7.43;78.79;99042.16;5091260;28;20192;-63
2022/01/05 07:22:00;;;;;;;25.50;18.13;;;;;;;8.59;79.57;99037.06;5091009;28;20198;-62
2022/01/05 07:24:27;;;;;;;28.57;20.83;;;;;;;9.04;76.45;99039.16;5092565;28;20765;-63
2022/01/05 07:26:53;;;;;;;23.80;19.10;;;;;;;9.18;69.93;99054.06;5093433;28;20323;-62
2022/01/05 07:29:20;;;;;;;31.80;18.43;;;;;;;9.24;70.06;99055.13;5092456;28;20191;-63
2022/01/05 07:31:48;;;;;;;33.53;19.10;;;;;;;9.27;68.42;99057.38;5090091;28;20244;-63
2022/01/05 07:34:16;;;;;;;47.20;21.00;;;;;;;9.33;67.37;99056.56;5092476;28;20551;-64
2022/01/05 07:36:43;;;;;;;36.23;21.50;;;;;;;9.47;67.57;99068.84;5092139;28;20665;-63
2022/01/05 07:39:09;;;;;;;43.87;22.00;;;;;;;9.50;66.89;99063.97;5092895;28;20264;-63
2022/01/05 07:41:37;;;;;;;30.03;21.17;;;;;;;9.43;66.87;99067.59;5108080;28;20222;-64
2022/01/05 07:44:05;;;;;;;37.27;21.97;;;;;;;9.42;67.40;99058.84;5112676;28;20218;-62
2022/01/05 07:46:32;;;;;;;47.93;24.90;;;;;;;9.59;66.45;99059.28;5111914;28;20263;-63
2022/01/05 07:49:01;;;;;;;22.83;17.77;;;;;;;9.65;67.91;99059.31;5110528;28;20195;-63
2022/01/05 07:51:29;;;;;;;29.17;17.70;;;;;;;10.14;67.18;99059.03;5111521;28;20217;-65
2022/01/05 07:53:55;;;;;;;36.03;20.37;;;;;;;10.40;66.30;99056.34;5111443;27;20194;-65
2022/01/05 07:56:22;;;;;;;29.30;17.67;;;;;;;10.60;66.53;99054.50;5110848;28;20202;-65
2022/01/05 07:58:49;;;;;;;20.50;14.43;;;;;;;11.06;63.66;99060.50;5112566;28;20195;-66
2022/01/05 08:01:18;;;;;;;17.60;14.47;;;;;;;11.14;63.64;99049.66;5109335;28;20222;-65
2022/01/05 08:03:45;;;;;;;23.10;16.20;;;;;;;11.42;63.66;99066.09;5111343;28;20221;-65
2022/01/05 08:06:13;;;;;;;24.57;15.33;;;;;;;11.85;62.39;99069.81;5112630;28;20218;-65
2022/01/05 08:08:45;;;;;;;32.87;15.97;;;;;;;12.10;60.93;99068.00;5111477;28;20196;-65
2022/01/05 08:11:13;;;;;;;21.87;14.50;;;;;;;12.37;59.31;99082.72;5110556;28;20241;-66
2022/01/05 08:13:40;;;;;;;23.20;16.27;;;;;;;12.52;58.78;99085.88;5111128;28;20201;-65
2022/01/05 08:16:08;;;;;;;21.63;15.70;;;;;;;12.42;59.72;99080.22;5111372;28;20259;-65
2022/01/05 08:18:34;;;;;;;22.40;15.40;;;;;;;12.72;59.53;99086.50;5111060;28;20725;-64
2022/01/05 08:21:01;;;;;;;26.00;15.67;;;;;;;12.95;58.24;99092.00;5112149;28;20193;-66
2022/01/05 08:23:30;;;;;;;21.37;15.27;;;;;;;13.20;58.21;99095.50;5107231;28;20279;-67
2022/01/05 08:25:57;;;;;;;26.10;14.80;;;;;;;13.39;57.73;99091.75;5110628;28;20199;-64
2022/01/05 08:28:24;;;;;;;22.47;14.83;;;;;;;13.33;56.87;99087.31;5112238;28;20243;-64
2022/01/05 08:30:51;;;;;;;18.90;15.50;;;;;;;13.35;58.00;99087.91;5112882;28;20548;-65
2022/01/05 08:33:19;;;;;;;33.27;14.87;;;;;;;13.55;57.39;99083.16;5112169;28;20639;-65
2022/01/05 08:35:47;;;;;;;19.90;13.77;;;;;;;13.87;57.16;99084.56;5112422;28;20194;-66
2022/01/05 08:38:15;;;;;;;21.33;13.80;;;;;;;14.28;56.27;99086.44;5111879;28;20201;-66
2022/01/05 08:40:44;;;;;;;31.20;19.47;;;;;;;14.31;55.11;99078.81;5103609;28;20223;-67
2022/01/05 08:43:12;;;;;;;16.73;12.80;;;;;;;14.49;55.94;99069.84;5092043;28;20248;-66
2022/01/05 08:45:39;;;;;;;16.43;12.70;;;;;;;14.65;54.07;99064.66;5091427;28;20191;-64
2022/01/05 08:48:06;;;;;;;17.80;13.63;;;;;;;14.73;54.77;99058.97;5090188;28;20203;-67
2022/01/05 08:50:34;;;;;;;15.37;12.83;;;;;;;14.89;53.86;99060.91;5090353;28;20279;-65
2022/01/05 08:53:01;;;;;;;18.73;12.47;;;;;;;14.96;53.55;99056.25;5089949;28;20199;-66
2022/01/05 08:55:31;;;;;;;26.63;11.07;;;;;;;15.24;60.92;99029.56;5089696;28;20675;-67
2022/01/05 08:57:59;;;;;;;18.70;13.60;;;;;;;15.30;52.82;99039.34;5089411;28;20195;-66
2022/01/05 09:00:26;;;;;;;17.57;13.20;;;;;;;15.26;53.03;99042.69;5089684;28;20253;-66
2022/01/05 09:02:54;;;;;;;22.17;13.07;;;;;;;15.19;53.08;99044.69;5089686;28;20252;-66
2022/01/05 09:05:20;;;;;;;18.60;12.90;;;;;;;15.14;52.18;99034.72;5088115;28;20309;-67
2022/01/05 09:07:47;;;;;;;14.93;12.90;;;;;;;15.26;52.71;99030.16;5088536;28;20199;-66
2022/01/05 09:10:15;;;;;;;13.87;12.43;;;;;;;15.41;52.50;99035.03;5087964;28;20187;-67
2022/01/05 09:12:43;;;;;;;19.40;13.67;;;;;;;15.53;52.39;99031.22;5087185;28;20207;-67
2022/01/05 09:15:11;;;;;;;14.27;12.87;;;;;;;15.60;51.96;99029.22;5088613;28;20194;-67
2022/01/05 09:17:39;;;;;;;14.90;12.60;;;;;;;15.37;53.00;99021.31;5087313;28;20195;-66
2022/01/05 09:20:07;;;;;;;23.50;13.10;;;;;;;15.47;52.83;99032.19;5089468;28;20202;-66
2022/01/05 09:22:37;;;;;;;14.60;12.93;;;;;;;15.46;52.59;99024.41;5089740;28;20658;-66
2022/01/05 09:25:05;;;;;;;18.23;13.87;;;;;;;15.36;53.08;99008.97;5090103;28;20215;-67
2022/01/05 09:27:32;;;;;;;50.77;23.93;;;;;;;15.43;53.11;99001.63;5090623;28;20191;-67
2022/01/05 09:29:59;;;;;;;20.33;14.77;;;;;;;15.55;53.00;99002.38;5089776;28;20278;-66
2022/01/05 09:32:27;;;;;;;34.53;18.07;;;;;;;15.74;52.67;98990.41;5090778;28;20191;-68
2022/01/05 09:34:54;;;;;;;19.90;13.97;;;;;;;15.92;51.52;98986.69;5090258;28;20196;-67
2022/01/05 09:37:24;;;;;;;15.27;12.40;;;;;;;15.96;50.97;98977.09;5090588;28;20655;-67
2022/01/05 09:42:36;;;;;;;12.10;10.47;;;;;;;15.98;49.74;98954.38;5110849;28;20182;-67
2022/01/05 09:45:18;;;;;;;17.77;12.60;;;;;;;16.14;49.55;98968.03;5112115;28;20223;-67
2022/01/05 09:48:10;;;;;;;15.40;11.83;;;;;;;16.18;49.20;98963.81;5110596;28;20614;-68
2022/01/05 09:50:39;;;;;;;13.97;11.90;;;;;;;16.17;49.12;98965.66;5111256;28;20311;-67
2022/01/05 09:53:08;;;;;;;36.40;12.93;;;;;;;16.16;49.54;98961.38;5111763;28;20195;-68
2022/01/05 09:55:35;;;;;;;21.77;13.43;;;;;;;15.88;50.68;98963.31;5111079;28;20323;-69
2022/01/05 09:58:02;;;;;;;23.57;12.90;;;;;;;15.72;50.37;98955.03;5111268;28;20190;-68
2022/01/05 10:00:29;;;;;;;18.10;13.03;;;;;;;15.72;50.88;98955.03;5092485;28;20268;-68
2022/01/05 10:02:57;;;;;;;15.23;12.97;;;;;;;15.78;50.10;98948.72;5093659;28;20248;-69
2022/01/05 10:05:24;;;;;;;15.60;11.83;;;;;;;15.89;49.91;98938.97;5094603;28;20219;-69
2022/01/05 10:07:51;;;;;;;32.57;12.40;;;;;;;15.74;50.43;98934.19;5093773;28;20280;-67
2022/01/05 10:10:17;;;;;;;14.90;12.67;;;;;;;15.73;49.78;98935.22;5094313;28;20196;-68
2022/01/05 10:12:44;;;;;;;14.40;11.20;;;;;;;15.59;50.64;98930.41;5094874;28;20252;-68
2022/01/05 10:15:14;;;;;;;14.93;11.30;;;;;;;15.09;51.47;98922.28;5093907;28;20199;-68
2022/01/05 10:17:41;;;;;;;16.67;11.90;;;;;;;15.02;51.84;98916.25;5098068;28;20216;-68
2022/01/05 10:20:11;;;;;;;27.93;12.17;;;;;;;14.86;52.63;98922.34;5114983;28;20202;-68
2022/01/05 10:22:39;;;;;;;13.40;12.03;;;;;;;14.98;52.08;98914.25;5115000;28;20611;-68
2022/01/05 10:25:14;;;;;;;14.20;12.63;;;;;;;15.23;51.10;98912.06;5114994;28;20244;-67
2022/01/05 10:27:41;;;;;;;14.87;12.13;;;;;;;15.14;51.08;98914.34;5114099;28;20247;-63
2022/01/05 10:30:12;;;;;;;29.10;20.20;;;;;;;15.17;51.15;98905.84;5112371;28;20565;-64
2022/01/05 10:32:40;;;;;;;21.90;14.20;;;;;;;15.27;51.19;98889.94;5113400;28;20179;-63
2022/01/05 10:35:11;;;;;;;21.13;13.83;;;;;;;15.47;50.40;98889.50;5113864;28;20195;-64
2022/01/05 10:37:40;;;;;;;18.73;15.40;;;;;;;15.70;50.16;98895.56;5112918;28;20186;-63
2022/01/05 10:40:15;;;;;;;16.03;13.60;;;;;;;15.73;49.41;98897.72;5109352;28;20705;-64
2022/01/05 10:42:44;;;;;;;52.37;20.40;;;;;;;15.88;49.17;98891.00;5094065;28;20284;-67
2022/01/05 10:45:14;;;;;;;30.00;15.47;;;;;;;15.89;48.74;98880.84;5092905;28;20276;-67
2022/01/05 10:47:41;;;;;;;45.47;22.40;;;;;;;15.72;49.64;98880.03;5094183;28;20273;-65
2022/01/05 10:50:19;;;;;;;29.07;14.17;;;;;;;15.44;49.10;98882.78;5093466;28;20256;-65
2022/01/05 10:52:54;;;;;;;25.27;15.07;;;;;;;15.04;49.83;98884.69;5093440;28;20242;-66
2022/01/05 10:55:24;;;;;;;39.07;15.23;;;;;;;15.08;49.76;98883.16;5094519;28;20190;-66
2022/01/05 10:58:02;;;;;;;16.50;13.77;;;;;;;14.67;51.42;98870.06;5093973;28;20214;-66
2022/01/05 11:00:34;;;;;;;17.67;13.80;;;;;;;14.79;50.40;98878.06;5093552;28;20627;-66
2022/01/05 11:03:01;;;;;;;23.50;13.67;;;;;;;15.11;50.09;98865.84;5093507;28;20569;-65
2022/01/05 11:05:29;;;;;;;18.40;14.70;;;;;;;15.22;49.29;98863.13;5093860;28;20268;-65
2022/01/05 11:08:08;;;;;;;18.97;14.23;;;;;;;15.41;49.21;98864.53;5094266;28;20240;-66
2022/01/05 11:10:34;;;;;;;28.00;15.50;;;;;;;15.62;48.70;98869.19;5094143;28;20185;-66
2022/01/05 11:13:01;;;;;;;21.63;14.53;;;;;;;15.73;48.58;98865.59;5092884;28;20201;-66
2022/01/05 11:15:30;;;;;;;13.83;12.43;;;;;;;15.81;47.54;98851.78;5093065;28;20244;-66
2022/01/05 11:18:21;;;;;;;14.73;12.73;;;;;;;15.92;46.67;98862.69;5093598;28;20199;-68
2022/01/05 11:20:52;;;;;;;18.87;12.63;;;;;;;16.04;46.39;98861.50;5082836;28;20572;-67
2022/01/05 11:23:20;;;;;;;14.98;12.15;;;;;;;15.93;46.23;98857.88;5093376;28;20473;-66
2022/01/05 11:25:48;;;;;;;14.10;12.60;;;;;;;16.13;45.55;98859.22;5104577;28;20226;-67